sensor_id;sensor_type;location;lat;lon;timestamp;P1;durP1;ratioP1;P2;durP2;ratioP2
57047;SDS011;42934;54.294;18.598;2024-03-02T00:02:15;46.00;;;26.95;;
57047;SDS011;42934;54.294;18.598;2024-03-02T00:04:45;46.63;;;27.48;;
57047;SDS011;42934;54.294;18.598;2024-03-02T00:07:14;43.40;;;26.23;;
57047;SDS011;42934;54.294;18.598;2024-03-02T00:09:44;45.38;;;26.80;;
57047;SDS011;42934;54.294;18.598;2024-03-02T00:12:15;49.53;;;27.48;;
57047;SDS011;42934;54.294;18.598;2024-03-02T00:14:45;43.75;;;27.25;;
57047;SDS011;42934;54.294;18.598;2024-03-02T00:17:17;46.85;;;26.98;;
57047;SDS011;42934;54.294;18.598;2024-03-02T00:19:52;46.30;;;26.75;;
57047;SDS011;42934;54.294;18.598;2024-03-02T00:22:21;46.83;;;26.67;;
57047;SDS011;42934;54.294;18.598;2024-03-02T00:24:51;48.30;;;27.30;;
57047;SDS011;42934;54.294;18.598;2024-03-02T00:27:22;43.00;;;27.00;;
57047;SDS011;42934;54.294;18.598;2024-03-02T00:29:54;44.38;;;25.25;;
57047;SDS011;42934;54.294;18.598;2024-03-02T00:32:24;45.22;;;26.73;;
57047;SDS011;42934;54.294;18.598;2024-03-02T00:34:55;45.17;;;26.90;;
57047;SDS011;42934;54.294;18.598;2024-03-02T00:37:24;47.53;;;26.50;;
57047;SDS011;42934;54.294;18.598;2024-03-02T00:39:55;45.58;;;27.17;;
57047;SDS011;42934;54.294;18.598;2024-03-02T00:42:24;47.58;;;26.10;;
57047;SDS011;42934;54.294;18.598;2024-03-02T00:44:55;47.05;;;27.10;;
57047;SDS011;42934;54.294;18.598;2024-03-02T00:47:24;44.55;;;25.27;;
57047;SDS011;42934;54.294;18.598;2024-03-02T00:49:54;44.88;;;25.45;;
57047;SDS011;42934;54.294;18.598;2024-03-02T00:52:23;42.92;;;26.00;;
57047;SDS011;42934;54.294;18.598;2024-03-02T00:54:54;44.47;;;25.35;;
57047;SDS011;42934;54.294;18.598;2024-03-02T00:57:33;47.80;;;25.90;;
57047;SDS011;42934;54.294;18.598;2024-03-02T01:00:05;48.80;;;26.75;;
57047;SDS011;42934;54.294;18.598;2024-03-02T01:02:38;43.20;;;25.48;;
57047;SDS011;42934;54.294;18.598;2024-03-02T01:07:38;44.60;;;25.10;;
57047;SDS011;42934;54.294;18.598;2024-03-02T01:10:07;46.00;;;25.97;;
57047;SDS011;42934;54.294;18.598;2024-03-02T01:12:37;48.63;;;26.63;;
57047;SDS011;42934;54.294;18.598;2024-03-02T01:15:09;44.85;;;26.13;;
57047;SDS011;42934;54.294;18.598;2024-03-02T01:17:39;47.08;;;25.98;;
57047;SDS011;42934;54.294;18.598;2024-03-02T01:20:08;45.67;;;27.02;;
57047;SDS011;42934;54.294;18.598;2024-03-02T01:22:38;39.72;;;24.52;;
57047;SDS011;42934;54.294;18.598;2024-03-02T01:25:08;45.57;;;26.53;;
57047;SDS011;42934;54.294;18.598;2024-03-02T01:27:37;49.40;;;26.27;;
57047;SDS011;42934;54.294;18.598;2024-03-02T01:30:07;41.25;;;24.73;;
57047;SDS011;42934;54.294;18.598;2024-03-02T01:32:38;45.47;;;25.65;;
57047;SDS011;42934;54.294;18.598;2024-03-02T01:35:08;48.72;;;27.17;;
57047;SDS011;42934;54.294;18.598;2024-03-02T01:37:37;44.55;;;26.60;;
57047;SDS011;42934;54.294;18.598;2024-03-02T01:40:07;45.88;;;25.13;;
57047;SDS011;42934;54.294;18.598;2024-03-02T01:42:38;46.90;;;26.95;;
57047;SDS011;42934;54.294;18.598;2024-03-02T01:45:09;47.55;;;26.98;;
57047;SDS011;42934;54.294;18.598;2024-03-02T01:47:39;47.50;;;26.02;;
57047;SDS011;42934;54.294;18.598;2024-03-02T01:50:09;45.40;;;25.58;;
57047;SDS011;42934;54.294;18.598;2024-03-02T01:52:40;47.63;;;25.83;;
57047;SDS011;42934;54.294;18.598;2024-03-02T01:55:11;48.40;;;25.73;;
57047;SDS011;42934;54.294;18.598;2024-03-02T01:57:40;50.30;;;26.93;;
57047;SDS011;42934;54.294;18.598;2024-03-02T02:00:13;43.25;;;25.58;;
57047;SDS011;42934;54.294;18.598;2024-03-02T02:02:43;45.60;;;26.10;;
57047;SDS011;42934;54.294;18.598;2024-03-02T02:05:13;47.95;;;26.90;;
57047;SDS011;42934;54.294;18.598;2024-03-02T02:07:43;45.38;;;26.75;;
57047;SDS011;42934;54.294;18.598;2024-03-02T02:10:12;42.27;;;25.20;;
57047;SDS011;42934;54.294;18.598;2024-03-02T02:12:41;45.50;;;25.20;;
57047;SDS011;42934;54.294;18.598;2024-03-02T02:15:23;47.63;;;26.45;;
57047;SDS011;42934;54.294;18.598;2024-03-02T02:17:53;45.47;;;24.52;;
57047;SDS011;42934;54.294;18.598;2024-03-02T02:20:23;43.15;;;24.05;;
57047;SDS011;42934;54.294;18.598;2024-03-02T02:22:58;46.03;;;24.55;;
57047;SDS011;42934;54.294;18.598;2024-03-02T02:25:27;46.85;;;24.48;;
57047;SDS011;42934;54.294;18.598;2024-03-02T02:27:57;44.05;;;24.27;;
57047;SDS011;42934;54.294;18.598;2024-03-02T02:30:27;40.53;;;23.52;;
57047;SDS011;42934;54.294;18.598;2024-03-02T02:32:58;44.83;;;24.50;;
57047;SDS011;42934;54.294;18.598;2024-03-02T02:35:28;44.42;;;25.38;;
57047;SDS011;42934;54.294;18.598;2024-03-02T02:37:58;46.22;;;25.40;;
57047;SDS011;42934;54.294;18.598;2024-03-02T02:40:28;45.95;;;24.63;;
57047;SDS011;42934;54.294;18.598;2024-03-02T02:42:57;44.60;;;24.33;;
57047;SDS011;42934;54.294;18.598;2024-03-02T02:45:27;41.30;;;24.80;;
57047;SDS011;42934;54.294;18.598;2024-03-02T02:47:56;42.13;;;23.63;;
57047;SDS011;42934;54.294;18.598;2024-03-02T02:50:26;44.10;;;24.17;;
57047;SDS011;42934;54.294;18.598;2024-03-02T02:52:55;42.10;;;23.70;;
57047;SDS011;42934;54.294;18.598;2024-03-02T02:55:26;44.23;;;23.47;;
57047;SDS011;42934;54.294;18.598;2024-03-02T02:57:55;40.65;;;22.83;;
57047;SDS011;42934;54.294;18.598;2024-03-02T03:00:24;38.42;;;23.65;;
57047;SDS011;42934;54.294;18.598;2024-03-02T03:02:53;43.67;;;24.80;;
57047;SDS011;42934;54.294;18.598;2024-03-02T03:05:23;41.40;;;24.07;;
57047;SDS011;42934;54.294;18.598;2024-03-02T03:07:52;39.60;;;24.30;;
57047;SDS011;42934;54.294;18.598;2024-03-02T03:10:21;43.60;;;24.17;;
57047;SDS011;42934;54.294;18.598;2024-03-02T03:12:54;39.58;;;23.55;;
57047;SDS011;42934;54.294;18.598;2024-03-02T03:15:24;41.42;;;23.92;;
57047;SDS011;42934;54.294;18.598;2024-03-02T03:17:54;44.17;;;25.00;;
57047;SDS011;42934;54.294;18.598;2024-03-02T03:20:24;39.97;;;23.75;;
57047;SDS011;42934;54.294;18.598;2024-03-02T03:22:54;41.88;;;24.08;;
57047;SDS011;42934;54.294;18.598;2024-03-02T03:25:23;40.22;;;24.65;;
57047;SDS011;42934;54.294;18.598;2024-03-02T03:27:52;41.72;;;25.08;;
57047;SDS011;42934;54.294;18.598;2024-03-02T03:30:24;42.60;;;24.70;;
57047;SDS011;42934;54.294;18.598;2024-03-02T03:32:53;44.10;;;24.50;;
57047;SDS011;42934;54.294;18.598;2024-03-02T03:35:23;40.17;;;24.03;;
57047;SDS011;42934;54.294;18.598;2024-03-02T03:37:52;43.65;;;24.77;;
57047;SDS011;42934;54.294;18.598;2024-03-02T03:40:21;42.33;;;23.97;;
57047;SDS011;42934;54.294;18.598;2024-03-02T03:42:50;41.90;;;24.88;;
57047;SDS011;42934;54.294;18.598;2024-03-02T03:45:21;44.03;;;25.42;;
57047;SDS011;42934;54.294;18.598;2024-03-02T03:47:53;42.72;;;25.67;;
57047;SDS011;42934;54.294;18.598;2024-03-02T03:50:23;48.55;;;26.42;;
57047;SDS011;42934;54.294;18.598;2024-03-02T03:52:52;46.85;;;25.50;;
57047;SDS011;42934;54.294;18.598;2024-03-02T03:55:21;47.50;;;26.30;;
57047;SDS011;42934;54.294;18.598;2024-03-02T03:57:50;47.60;;;25.88;;
57047;SDS011;42934;54.294;18.598;2024-03-02T04:00:21;42.55;;;25.38;;
57047;SDS011;42934;54.294;18.598;2024-03-02T04:02:50;43.38;;;24.95;;
57047;SDS011;42934;54.294;18.598;2024-03-02T04:05:20;47.37;;;26.23;;
57047;SDS011;42934;54.294;18.598;2024-03-02T04:07:49;47.25;;;26.73;;
57047;SDS011;42934;54.294;18.598;2024-03-02T04:10:18;47.60;;;27.17;;
57047;SDS011;42934;54.294;18.598;2024-03-02T04:12:49;45.58;;;25.95;;
57047;SDS011;42934;54.294;18.598;2024-03-02T04:15:18;46.53;;;26.30;;
57047;SDS011;42934;54.294;18.598;2024-03-02T04:17:51;44.28;;;25.75;;
57047;SDS011;42934;54.294;18.598;2024-03-02T04:20:20;44.85;;;26.45;;
57047;SDS011;42934;54.294;18.598;2024-03-02T04:22:49;46.90;;;24.92;;
57047;SDS011;42934;54.294;18.598;2024-03-02T04:25:18;44.22;;;26.60;;
57047;SDS011;42934;54.294;18.598;2024-03-02T04:27:47;42.75;;;26.48;;
57047;SDS011;42934;54.294;18.598;2024-03-02T04:30:17;45.10;;;26.40;;
57047;SDS011;42934;54.294;18.598;2024-03-02T04:32:46;49.70;;;26.38;;
57047;SDS011;42934;54.294;18.598;2024-03-02T04:35:17;47.70;;;26.15;;
57047;SDS011;42934;54.294;18.598;2024-03-02T04:37:46;45.85;;;25.83;;
57047;SDS011;42934;54.294;18.598;2024-03-02T04:40:16;45.77;;;25.97;;
57047;SDS011;42934;54.294;18.598;2024-03-02T04:42:45;46.42;;;25.52;;
57047;SDS011;42934;54.294;18.598;2024-03-02T04:45:14;44.83;;;26.40;;
57047;SDS011;42934;54.294;18.598;2024-03-02T04:47:43;45.25;;;25.42;;
57047;SDS011;42934;54.294;18.598;2024-03-02T04:50:17;45.15;;;24.67;;
57047;SDS011;42934;54.294;18.598;2024-03-02T04:52:46;45.05;;;25.65;;
57047;SDS011;42934;54.294;18.598;2024-03-02T04:55:17;42.45;;;24.55;;
57047;SDS011;42934;54.294;18.598;2024-03-02T04:58:13;45.63;;;25.92;;
57047;SDS011;42934;54.294;18.598;2024-03-02T05:00:43;46.08;;;26.30;;
57047;SDS011;42934;54.294;18.598;2024-03-02T05:05:44;42.80;;;24.58;;
57047;SDS011;42934;54.294;18.598;2024-03-02T05:08:13;46.40;;;26.13;;
57047;SDS011;42934;54.294;18.598;2024-03-02T05:10:44;49.63;;;25.60;;
57047;SDS011;42934;54.294;18.598;2024-03-02T05:13:13;43.50;;;25.47;;
57047;SDS011;42934;54.294;18.598;2024-03-02T05:15:44;43.50;;;24.20;;
57047;SDS011;42934;54.294;18.598;2024-03-02T05:18:13;48.33;;;26.70;;
57047;SDS011;42934;54.294;18.598;2024-03-02T05:20:44;50.05;;;25.35;;
57047;SDS011;42934;54.294;18.598;2024-03-02T05:23:14;45.53;;;25.95;;
57047;SDS011;42934;54.294;18.598;2024-03-02T05:25:44;45.07;;;26.00;;
57047;SDS011;42934;54.294;18.598;2024-03-02T05:28:13;43.78;;;25.40;;
57047;SDS011;42934;54.294;18.598;2024-03-02T05:30:42;46.78;;;26.00;;
57047;SDS011;42934;54.294;18.598;2024-03-02T05:33:11;45.80;;;25.98;;
57047;SDS011;42934;54.294;18.598;2024-03-02T05:35:45;41.67;;;24.33;;
57047;SDS011;42934;54.294;18.598;2024-03-02T05:38:14;46.70;;;26.23;;
57047;SDS011;42934;54.294;18.598;2024-03-02T05:40:43;44.45;;;25.38;;
57047;SDS011;42934;54.294;18.598;2024-03-02T05:43:12;50.55;;;26.20;;
57047;SDS011;42934;54.294;18.598;2024-03-02T05:45:42;50.40;;;27.13;;
57047;SDS011;42934;54.294;18.598;2024-03-02T05:48:11;47.85;;;27.08;;
57047;SDS011;42934;54.294;18.598;2024-03-02T05:50:41;48.40;;;27.37;;
57047;SDS011;42934;54.294;18.598;2024-03-02T05:53:11;45.03;;;26.33;;
57047;SDS011;42934;54.294;18.598;2024-03-02T05:55:42;50.28;;;27.42;;
57047;SDS011;42934;54.294;18.598;2024-03-02T05:58:12;48.85;;;26.48;;
57047;SDS011;42934;54.294;18.598;2024-03-02T06:00:54;46.45;;;25.80;;
57047;SDS011;42934;54.294;18.598;2024-03-02T06:03:24;45.63;;;25.73;;
57047;SDS011;42934;54.294;18.598;2024-03-02T06:05:55;49.47;;;27.13;;
57047;SDS011;42934;54.294;18.598;2024-03-02T06:08:26;48.92;;;27.02;;
57047;SDS011;42934;54.294;18.598;2024-03-02T06:10:55;45.35;;;26.23;;
57047;SDS011;42934;54.294;18.598;2024-03-02T06:13:25;46.53;;;26.35;;
57047;SDS011;42934;54.294;18.598;2024-03-02T06:15:54;46.90;;;26.97;;
57047;SDS011;42934;54.294;18.598;2024-03-02T06:18:23;46.72;;;26.17;;
57047;SDS011;42934;54.294;18.598;2024-03-02T06:20:53;50.25;;;26.88;;
57047;SDS011;42934;54.294;18.598;2024-03-02T06:23:22;47.75;;;26.65;;
57047;SDS011;42934;54.294;18.598;2024-03-02T06:25:53;52.35;;;27.48;;
57047;SDS011;42934;54.294;18.598;2024-03-02T06:28:22;50.90;;;26.15;;
57047;SDS011;42934;54.294;18.598;2024-03-02T06:30:51;49.17;;;26.83;;
57047;SDS011;42934;54.294;18.598;2024-03-02T06:33:20;48.22;;;26.58;;
57047;SDS011;42934;54.294;18.598;2024-03-02T06:35:50;52.20;;;27.80;;
57047;SDS011;42934;54.294;18.598;2024-03-02T06:38:19;52.15;;;26.85;;
57047;SDS011;42934;54.294;18.598;2024-03-02T06:40:48;50.80;;;28.07;;
57047;SDS011;42934;54.294;18.598;2024-03-02T06:43:19;49.38;;;27.85;;
57047;SDS011;42934;54.294;18.598;2024-03-02T06:45:50;50.55;;;27.15;;
57047;SDS011;42934;54.294;18.598;2024-03-02T06:48:19;50.50;;;27.57;;
57047;SDS011;42934;54.294;18.598;2024-03-02T06:50:49;50.10;;;26.15;;
57047;SDS011;42934;54.294;18.598;2024-03-02T06:53:19;51.55;;;26.95;;
57047;SDS011;42934;54.294;18.598;2024-03-02T06:55:49;51.55;;;28.20;;
57047;SDS011;42934;54.294;18.598;2024-03-02T06:58:20;48.75;;;28.05;;
57047;SDS011;42934;54.294;18.598;2024-03-02T07:00:49;51.78;;;27.85;;
57047;SDS011;42934;54.294;18.598;2024-03-02T07:05:49;51.70;;;27.38;;
57047;SDS011;42934;54.294;18.598;2024-03-02T07:08:18;56.67;;;30.15;;
57047;SDS011;42934;54.294;18.598;2024-03-02T07:10:47;54.43;;;29.30;;
57047;SDS011;42934;54.294;18.598;2024-03-02T07:13:16;53.17;;;28.77;;
57047;SDS011;42934;54.294;18.598;2024-03-02T07:15:48;56.75;;;28.25;;
57047;SDS011;42934;54.294;18.598;2024-03-02T07:18:42;52.70;;;27.98;;
57047;SDS011;42934;54.294;18.598;2024-03-02T07:21:18;53.05;;;28.65;;
57047;SDS011;42934;54.294;18.598;2024-03-02T07:23:49;56.80;;;30.25;;
57047;SDS011;42934;54.294;18.598;2024-03-02T07:26:18;53.67;;;29.42;;
57047;SDS011;42934;54.294;18.598;2024-03-02T07:28:51;56.38;;;30.15;;
57047;SDS011;42934;54.294;18.598;2024-03-02T07:31:22;55.25;;;29.95;;
57047;SDS011;42934;54.294;18.598;2024-03-02T07:33:51;53.00;;;29.35;;
57047;SDS011;42934;54.294;18.598;2024-03-02T07:36:21;59.25;;;30.15;;
57047;SDS011;42934;54.294;18.598;2024-03-02T07:38:50;51.90;;;28.05;;
57047;SDS011;42934;54.294;18.598;2024-03-02T07:41:19;60.15;;;30.30;;
57047;SDS011;42934;54.294;18.598;2024-03-02T07:43:49;54.35;;;29.00;;
57047;SDS011;42934;54.294;18.598;2024-03-02T07:46:19;54.17;;;29.38;;
57047;SDS011;42934;54.294;18.598;2024-03-02T07:48:49;56.92;;;29.25;;
57047;SDS011;42934;54.294;18.598;2024-03-02T07:51:20;51.17;;;28.85;;
57047;SDS011;42934;54.294;18.598;2024-03-02T07:53:49;52.58;;;27.45;;
57047;SDS011;42934;54.294;18.598;2024-03-02T07:56:19;56.90;;;30.40;;
57047;SDS011;42934;54.294;18.598;2024-03-02T07:58:49;54.75;;;29.95;;
57047;SDS011;42934;54.294;18.598;2024-03-02T08:01:19;52.97;;;28.80;;
57047;SDS011;42934;54.294;18.598;2024-03-02T08:03:50;52.78;;;27.45;;
57047;SDS011;42934;54.294;18.598;2024-03-02T08:06:20;52.55;;;27.98;;
57047;SDS011;42934;54.294;18.598;2024-03-02T08:08:49;55.83;;;29.50;;
57047;SDS011;42934;54.294;18.598;2024-03-02T08:11:18;53.90;;;28.83;;
57047;SDS011;42934;54.294;18.598;2024-03-02T08:13:48;49.75;;;27.50;;
57047;SDS011;42934;54.294;18.598;2024-03-02T08:16:18;53.90;;;27.83;;
57047;SDS011;42934;54.294;18.598;2024-03-02T08:18:48;52.28;;;28.90;;
57047;SDS011;42934;54.294;18.598;2024-03-02T08:21:20;50.45;;;26.98;;
57047;SDS011;42934;54.294;18.598;2024-03-02T08:23:49;59.60;;;29.15;;
57047;SDS011;42934;54.294;18.598;2024-03-02T08:26:19;49.72;;;27.85;;
57047;SDS011;42934;54.294;18.598;2024-03-02T08:28:48;52.38;;;28.85;;
57047;SDS011;42934;54.294;18.598;2024-03-02T08:31:18;53.63;;;28.30;;
57047;SDS011;42934;54.294;18.598;2024-03-02T08:33:47;50.88;;;27.25;;
57047;SDS011;42934;54.294;18.598;2024-03-02T08:36:18;74.22;;;38.15;;
57047;SDS011;42934;54.294;18.598;2024-03-02T08:38:48;68.03;;;34.92;;
57047;SDS011;42934;54.294;18.598;2024-03-02T08:41:18;59.90;;;30.85;;
57047;SDS011;42934;54.294;18.598;2024-03-02T08:43:47;53.88;;;30.58;;
57047;SDS011;42934;54.294;18.598;2024-03-02T08:46:17;53.33;;;28.33;;
57047;SDS011;42934;54.294;18.598;2024-03-02T08:48:46;53.30;;;29.27;;
57047;SDS011;42934;54.294;18.598;2024-03-02T08:51:16;56.75;;;28.80;;
57047;SDS011;42934;54.294;18.598;2024-03-02T08:53:46;54.42;;;29.42;;
57047;SDS011;42934;54.294;18.598;2024-03-02T08:56:16;50.78;;;27.60;;
57047;SDS011;42934;54.294;18.598;2024-03-02T08:58:47;54.85;;;29.50;;
57047;SDS011;42934;54.294;18.598;2024-03-02T09:01:19;58.15;;;30.33;;
57047;SDS011;42934;54.294;18.598;2024-03-02T09:03:53;57.35;;;29.77;;
57047;SDS011;42934;54.294;18.598;2024-03-02T09:06:32;59.75;;;29.80;;
57047;SDS011;42934;54.294;18.598;2024-03-02T09:11:42;53.60;;;28.75;;
57047;SDS011;42934;54.294;18.598;2024-03-02T09:14:11;56.78;;;29.30;;
57047;SDS011;42934;54.294;18.598;2024-03-02T09:16:42;54.88;;;28.85;;
57047;SDS011;42934;54.294;18.598;2024-03-02T09:19:12;56.95;;;31.38;;
57047;SDS011;42934;54.294;18.598;2024-03-02T09:21:43;54.22;;;29.30;;
57047;SDS011;42934;54.294;18.598;2024-03-02T09:24:12;55.53;;;29.50;;
57047;SDS011;42934;54.294;18.598;2024-03-02T09:26:44;53.80;;;29.40;;
57047;SDS011;42934;54.294;18.598;2024-03-02T09:29:14;51.88;;;28.25;;
57047;SDS011;42934;54.294;18.598;2024-03-02T09:31:44;53.63;;;29.67;;
57047;SDS011;42934;54.294;18.598;2024-03-02T09:34:14;54.40;;;28.57;;
57047;SDS011;42934;54.294;18.598;2024-03-02T09:36:45;54.00;;;29.05;;
57047;SDS011;42934;54.294;18.598;2024-03-02T09:39:14;53.22;;;28.67;;
57047;SDS011;42934;54.294;18.598;2024-03-02T09:41:45;53.70;;;28.98;;
57047;SDS011;42934;54.294;18.598;2024-03-02T09:46:44;50.80;;;28.70;;
57047;SDS011;42934;54.294;18.598;2024-03-02T09:49:23;52.05;;;29.02;;
57047;SDS011;42934;54.294;18.598;2024-03-02T09:51:54;48.42;;;27.63;;
57047;SDS011;42934;54.294;18.598;2024-03-02T09:54:26;57.63;;;30.67;;
57047;SDS011;42934;54.294;18.598;2024-03-02T09:56:57;49.33;;;27.08;;
57047;SDS011;42934;54.294;18.598;2024-03-02T09:59:28;56.08;;;28.23;;
57047;SDS011;42934;54.294;18.598;2024-03-02T10:01:58;50.78;;;28.63;;
57047;SDS011;42934;54.294;18.598;2024-03-02T10:04:28;52.45;;;27.70;;
57047;SDS011;42934;54.294;18.598;2024-03-02T10:07:12;51.25;;;28.05;;
57047;SDS011;42934;54.294;18.598;2024-03-02T10:09:41;57.20;;;30.55;;
57047;SDS011;42934;54.294;18.598;2024-03-02T10:12:14;53.17;;;29.05;;
57047;SDS011;42934;54.294;18.598;2024-03-02T10:14:44;53.53;;;28.23;;
57047;SDS011;42934;54.294;18.598;2024-03-02T10:17:17;50.47;;;28.85;;
57047;SDS011;42934;54.294;18.598;2024-03-02T10:19:46;47.85;;;28.10;;
57047;SDS011;42934;54.294;18.598;2024-03-02T10:22:17;46.40;;;28.40;;
57047;SDS011;42934;54.294;18.598;2024-03-02T10:24:46;46.90;;;27.33;;
57047;SDS011;42934;54.294;18.598;2024-03-02T10:27:25;45.38;;;27.35;;
57047;SDS011;42934;54.294;18.598;2024-03-02T10:29:57;49.03;;;27.63;;
57047;SDS011;42934;54.294;18.598;2024-03-02T10:32:26;52.20;;;29.00;;
57047;SDS011;42934;54.294;18.598;2024-03-02T10:34:55;46.97;;;29.80;;
57047;SDS011;42934;54.294;18.598;2024-03-02T10:37:28;51.42;;;29.00;;
57047;SDS011;42934;54.294;18.598;2024-03-02T10:39:57;52.42;;;28.92;;
57047;SDS011;42934;54.294;18.598;2024-03-02T10:42:35;49.30;;;27.83;;
57047;SDS011;42934;54.294;18.598;2024-03-02T10:47:36;46.22;;;27.38;;
57047;SDS011;42934;54.294;18.598;2024-03-02T10:50:06;49.50;;;27.17;;
57047;SDS011;42934;54.294;18.598;2024-03-02T10:52:38;46.97;;;27.50;;
57047;SDS011;42934;54.294;18.598;2024-03-02T10:55:08;48.75;;;27.70;;
57047;SDS011;42934;54.294;18.598;2024-03-02T10:57:41;49.50;;;27.17;;
57047;SDS011;42934;54.294;18.598;2024-03-02T11:00:13;50.00;;;27.60;;
57047;SDS011;42934;54.294;18.598;2024-03-02T11:02:45;45.72;;;26.75;;
57047;SDS011;42934;54.294;18.598;2024-03-02T11:05:26;41.20;;;24.88;;
57047;SDS011;42934;54.294;18.598;2024-03-02T11:08:01;42.10;;;25.73;;
57047;SDS011;42934;54.294;18.598;2024-03-02T11:10:37;50.90;;;28.38;;
57047;SDS011;42934;54.294;18.598;2024-03-02T11:13:10;46.10;;;27.77;;
57047;SDS011;42934;54.294;18.598;2024-03-02T11:15:40;46.38;;;27.23;;
57047;SDS011;42934;54.294;18.598;2024-03-02T11:18:13;42.65;;;25.85;;
57047;SDS011;42934;54.294;18.598;2024-03-02T11:20:46;45.15;;;27.45;;
57047;SDS011;42934;54.294;18.598;2024-03-02T11:23:17;45.30;;;26.27;;
57047;SDS011;42934;54.294;18.598;2024-03-02T11:25:46;43.78;;;27.20;;
57047;SDS011;42934;54.294;18.598;2024-03-02T11:28:16;45.70;;;27.45;;
57047;SDS011;42934;54.294;18.598;2024-03-02T11:31:04;43.10;;;25.92;;
57047;SDS011;42934;54.294;18.598;2024-03-02T11:33:33;49.88;;;28.42;;
57047;SDS011;42934;54.294;18.598;2024-03-02T11:38:38;48.22;;;26.40;;
57047;SDS011;42934;54.294;18.598;2024-03-02T11:41:13;49.83;;;28.38;;
57047;SDS011;42934;54.294;18.598;2024-03-02T11:43:43;53.05;;;28.63;;
57047;SDS011;42934;54.294;18.598;2024-03-02T11:46:12;44.83;;;26.95;;
57047;SDS011;42934;54.294;18.598;2024-03-02T11:48:44;47.33;;;26.58;;
57047;SDS011;42934;54.294;18.598;2024-03-02T11:51:15;46.47;;;26.95;;
57047;SDS011;42934;54.294;18.598;2024-03-02T11:53:47;46.15;;;26.98;;
57047;SDS011;42934;54.294;18.598;2024-03-02T11:56:18;44.17;;;27.88;;
57047;SDS011;42934;54.294;18.598;2024-03-02T11:58:48;45.17;;;27.77;;
57047;SDS011;42934;54.294;18.598;2024-03-02T12:01:21;46.88;;;26.73;;
57047;SDS011;42934;54.294;18.598;2024-03-02T12:03:51;44.95;;;27.55;;
57047;SDS011;42934;54.294;18.598;2024-03-02T12:06:22;46.03;;;27.45;;
57047;SDS011;42934;54.294;18.598;2024-03-02T12:08:53;40.90;;;26.05;;
57047;SDS011;42934;54.294;18.598;2024-03-02T12:11:24;43.88;;;27.17;;
57047;SDS011;42934;54.294;18.598;2024-03-02T12:13:52;98.75;;;31.55;;
57047;SDS011;42934;54.294;18.598;2024-03-02T12:18:52;43.70;;;26.13;;
57047;SDS011;42934;54.294;18.598;2024-03-02T12:21:22;48.45;;;27.45;;
57047;SDS011;42934;54.294;18.598;2024-03-02T12:23:53;48.03;;;27.95;;
57047;SDS011;42934;54.294;18.598;2024-03-02T12:26:23;46.65;;;27.38;;
57047;SDS011;42934;54.294;18.598;2024-03-02T12:28:53;46.60;;;27.90;;
57047;SDS011;42934;54.294;18.598;2024-03-02T12:31:22;45.63;;;27.50;;
57047;SDS011;42934;54.294;18.598;2024-03-02T12:33:51;50.83;;;29.08;;
57047;SDS011;42934;54.294;18.598;2024-03-02T12:36:22;46.75;;;26.70;;
57047;SDS011;42934;54.294;18.598;2024-03-02T12:38:53;47.72;;;26.77;;
57047;SDS011;42934;54.294;18.598;2024-03-02T12:41:23;46.47;;;26.83;;
57047;SDS011;42934;54.294;18.598;2024-03-02T12:43:54;48.35;;;28.88;;
57047;SDS011;42934;54.294;18.598;2024-03-02T12:46:24;48.45;;;28.48;;
57047;SDS011;42934;54.294;18.598;2024-03-02T12:48:53;54.47;;;29.70;;
57047;SDS011;42934;54.294;18.598;2024-03-02T12:51:23;45.97;;;27.60;;
57047;SDS011;42934;54.294;18.598;2024-03-02T12:53:54;45.85;;;28.30;;
57047;SDS011;42934;54.294;18.598;2024-03-02T12:56:24;47.15;;;28.52;;
57047;SDS011;42934;54.294;18.598;2024-03-02T12:58:54;48.20;;;27.55;;
57047;SDS011;42934;54.294;18.598;2024-03-02T13:01:25;46.70;;;28.15;;
57047;SDS011;42934;54.294;18.598;2024-03-02T13:03:55;48.08;;;27.15;;
57047;SDS011;42934;54.294;18.598;2024-03-02T13:06:26;51.80;;;29.40;;
57047;SDS011;42934;54.294;18.598;2024-03-02T13:08:57;43.72;;;27.77;;
57047;SDS011;42934;54.294;18.598;2024-03-02T13:11:26;47.53;;;28.48;;
57047;SDS011;42934;54.294;18.598;2024-03-02T13:13:56;47.80;;;27.83;;
57047;SDS011;42934;54.294;18.598;2024-03-02T13:16:25;48.45;;;28.25;;
57047;SDS011;42934;54.294;18.598;2024-03-02T13:19:07;43.35;;;26.50;;
57047;SDS011;42934;54.294;18.598;2024-03-02T13:21:36;47.45;;;27.05;;
57047;SDS011;42934;54.294;18.598;2024-03-02T13:24:07;48.78;;;28.35;;
57047;SDS011;42934;54.294;18.598;2024-03-02T13:26:36;44.20;;;27.38;;
57047;SDS011;42934;54.294;18.598;2024-03-02T13:29:07;46.13;;;27.48;;
57047;SDS011;42934;54.294;18.598;2024-03-02T13:31:37;46.78;;;27.10;;
57047;SDS011;42934;54.294;18.598;2024-03-02T13:34:07;40.28;;;25.85;;
57047;SDS011;42934;54.294;18.598;2024-03-02T13:36:36;47.08;;;27.60;;
57047;SDS011;42934;54.294;18.598;2024-03-02T13:39:07;50.63;;;28.20;;
57047;SDS011;42934;54.294;18.598;2024-03-02T13:41:37;43.83;;;26.55;;
57047;SDS011;42934;54.294;18.598;2024-03-02T13:44:07;48.45;;;28.02;;
57047;SDS011;42934;54.294;18.598;2024-03-02T13:46:36;46.15;;;27.02;;
57047;SDS011;42934;54.294;18.598;2024-03-02T13:49:06;46.10;;;27.88;;
57047;SDS011;42934;54.294;18.598;2024-03-02T13:51:37;40.53;;;25.45;;
57047;SDS011;42934;54.294;18.598;2024-03-02T13:54:08;41.63;;;27.60;;
57047;SDS011;42934;54.294;18.598;2024-03-02T13:56:37;48.13;;;27.40;;
57047;SDS011;42934;54.294;18.598;2024-03-02T14:01:36;46.95;;;27.05;;
57047;SDS011;42934;54.294;18.598;2024-03-02T14:04:06;51.85;;;28.92;;
57047;SDS011;42934;54.294;18.598;2024-03-02T14:06:36;48.88;;;26.52;;
57047;SDS011;42934;54.294;18.598;2024-03-02T14:09:05;42.40;;;25.80;;
57047;SDS011;42934;54.294;18.598;2024-03-02T14:11:36;42.65;;;26.05;;
57047;SDS011;42934;54.294;18.598;2024-03-02T14:14:06;44.13;;;25.98;;
57047;SDS011;42934;54.294;18.598;2024-03-02T14:16:35;43.15;;;25.23;;
57047;SDS011;42934;54.294;18.598;2024-03-02T14:19:04;43.67;;;26.17;;
57047;SDS011;42934;54.294;18.598;2024-03-02T14:21:33;45.75;;;25.10;;
57047;SDS011;42934;54.294;18.598;2024-03-02T14:24:04;46.28;;;26.80;;
57047;SDS011;42934;54.294;18.598;2024-03-02T14:26:35;40.90;;;25.27;;
57047;SDS011;42934;54.294;18.598;2024-03-02T14:29:05;44.65;;;26.00;;
57047;SDS011;42934;54.294;18.598;2024-03-02T14:31:34;43.30;;;26.17;;
57047;SDS011;42934;54.294;18.598;2024-03-02T14:34:04;46.58;;;27.15;;
57047;SDS011;42934;54.294;18.598;2024-03-02T14:36:33;46.58;;;28.48;;
57047;SDS011;42934;54.294;18.598;2024-03-02T14:39:03;48.85;;;27.13;;
57047;SDS011;42934;54.294;18.598;2024-03-02T14:41:37;42.10;;;25.85;;
57047;SDS011;42934;54.294;18.598;2024-03-02T14:44:07;43.78;;;26.30;;
57047;SDS011;42934;54.294;18.598;2024-03-02T14:49:08;44.17;;;25.30;;
57047;SDS011;42934;54.294;18.598;2024-03-02T14:54:08;43.25;;;24.75;;
57047;SDS011;42934;54.294;18.598;2024-03-02T14:56:38;46.47;;;26.23;;